Tri-State/Milton J. Ferguson Field
KHTS : now visible

Airfield :











YOU CAN JOIN US ON...

 
LOGIN :

Register | Disclaimer

   EN    FR    IT 

 









Legend :    VFR   Marginal VFR   IFR   Intensive IFR   Very Intensive IFR
Visi :
Ceiling :
>= 8 km
>= 3000ft
5 to 8 km
1000 to 3000 ft
1500m to 5 km
500 to 1000 ft
800 to 1500m
200 to 500 ft
< 800m
< 200 ft
Symbols :   Thunderstorms  Fog  Heavy snow  Heavy precipitations  Wind > 20 kt






- Airport Elevation : 828 ft
- IATA code : HTS


KHTS - Tri-State/Milton J. Ferguson Field

CURRENT METAR :
  • 191134Z 04003KT M1/4SM FG VV002 19/19 A3015 RMK AO2 T01940189

EXPIRED METARs :
  • 191051Z 00000KT M1/4SM FG VV001 19/19 A3014 RMK AO2 SLP199 T01940189
  • 191016Z 01004KT M1/4SM FG VV001 19/19 A3014 RMK AO2 T01940189
  • 191002Z 00000KT 1/4SM FG VV001 18/18 A3013 RMK AO2 T01830178
  • 190951Z 36003KT 1/2SM FG VV001 18/18 A3013 RMK AO2 SLP195 T01830178
  • 190928Z 00000KT 1/2SM FG VV002 19/18 A3013 RMK AO2 T01890183
  • 190915Z 00000KT 1 1/2SM BR BKN001 19/18 A3013 RMK AO2 T01890183
  • 190856Z 00000KT 3SM BR OVC002 18/18 A3013 RMK AO2 T01830178
  • 190845Z 00000KT 3/4SM BR VV002 19/18 A3012 RMK AO2

TAF KHTS
Valid from the 19 at 09:00 until the 20 at 06:00 UTC


190831Z 1909/2006 00000KT 3/4SM BR VV001
FM191300 00000KT 4SM BR SCT100
FM191400 VRB03KT P6SM SCT180
FM192000 11004KT P6SM BKN250
KZID FIR / North America



MET'MAP, your aeronautical weather chart ! - Copyright ORBIFLY December 2007 - Disclaimer

ORBIFLY MET'MAP TEAM :

Programming & Development : Alexandra Zaïnal
Concept & original design : Baudouin d'Aumeries
Assistance for programming : Marc-Olivier Méhu
Technical & hardware support : Manuel Goepfert

Contact : metmap@orbifly.com




SOURCES & CREDITS :

   NOAA       Earth
Advisory